sensor_id;sensor_type;location;lat;lon;timestamp;temperature;humidity
27413;DHT22;14871;52.702;5.230;2023-02-01T00:01:43;8.90;99.90
27413;DHT22;14871;52.702;5.230;2023-02-01T00:04:09;8.90;99.90
27413;DHT22;14871;52.702;5.230;2023-02-01T00:06:34;8.90;99.90
27413;DHT22;14871;52.702;5.230;2023-02-01T00:09:00;8.90;99.90
27413;DHT22;14871;52.702;5.230;2023-02-01T00:11:26;8.80;99.90
27413;DHT22;14871;52.702;5.230;2023-02-01T00:13:53;9.00;99.90
27413;DHT22;14871;52.702;5.230;2023-02-01T00:16:21;9.00;99.90
27413;DHT22;14871;52.702;5.230;2023-02-01T00:18:49;8.90;99.90
27413;DHT22;14871;52.702;5.230;2023-02-01T00:21:17;9.10;99.90
27413;DHT22;14871;52.702;5.230;2023-02-01T00:23:43;9.00;99.90
27413;DHT22;14871;52.702;5.230;2023-02-01T00:26:14;8.90;99.90
27413;DHT22;14871;52.702;5.230;2023-02-01T00:28:40;8.90;99.90
27413;DHT22;14871;52.702;5.230;2023-02-01T00:31:05;9.10;99.90
27413;DHT22;14871;52.702;5.230;2023-02-01T00:33:32;9.20;99.90
27413;DHT22;14871;52.702;5.230;2023-02-01T00:35:59;9.10;99.90
27413;DHT22;14871;52.702;5.230;2023-02-01T00:38:26;9.10;99.90
27413;DHT22;14871;52.702;5.230;2023-02-01T00:40:52;9.00;99.90
27413;DHT22;14871;52.702;5.230;2023-02-01T00:43:17;9.00;99.90
27413;DHT22;14871;52.702;5.230;2023-02-01T00:45:45;8.90;99.90
27413;DHT22;14871;52.702;5.230;2023-02-01T00:48:11;8.90;99.90
27413;DHT22;14871;52.702;5.230;2023-02-01T00:50:41;9.10;99.90
27413;DHT22;14871;52.702;5.230;2023-02-01T00:53:08;9.00;99.90
27413;DHT22;14871;52.702;5.230;2023-02-01T00:55:34;8.90;99.90
27413;DHT22;14871;52.702;5.230;2023-02-01T00:58:00;9.00;99.90
27413;DHT22;14871;52.702;5.230;2023-02-01T01:00:25;8.90;99.90
27413;DHT22;14871;52.702;5.230;2023-02-01T01:02:51;8.80;99.90
27413;DHT22;14871;52.702;5.230;2023-02-01T01:05:17;9.00;99.90
27413;DHT22;14871;52.702;5.230;2023-02-01T01:07:42;9.00;99.90
27413;DHT22;14871;52.702;5.230;2023-02-01T01:10:08;9.00;99.90
27413;DHT22;14871;52.702;5.230;2023-02-01T01:12:34;8.90;99.90
27413;DHT22;14871;52.702;5.230;2023-02-01T01:14:59;9.00;99.90
27413;DHT22;14871;52.702;5.230;2023-02-01T01:17:25;9.00;99.90
27413;DHT22;14871;52.702;5.230;2023-02-01T01:19:50;8.90;99.90
27413;DHT22;14871;52.702;5.230;2023-02-01T01:22:16;8.80;99.90
27413;DHT22;14871;52.702;5.230;2023-02-01T01:24:43;9.00;99.90
27413;DHT22;14871;52.702;5.230;2023-02-01T01:27:08;8.90;99.90
27413;DHT22;14871;52.702;5.230;2023-02-01T01:29:34;8.90;99.90
27413;DHT22;14871;52.702;5.230;2023-02-01T01:32:00;8.90;99.90
27413;DHT22;14871;52.702;5.230;2023-02-01T01:34:25;9.00;99.90
27413;DHT22;14871;52.702;5.230;2023-02-01T01:36:51;9.10;99.90
27413;DHT22;14871;52.702;5.230;2023-02-01T01:39:16;9.10;99.90
27413;DHT22;14871;52.702;5.230;2023-02-01T01:41:42;9.10;99.90
27413;DHT22;14871;52.702;5.230;2023-02-01T01:47:31;9.00;99.90
27413;DHT22;14871;52.702;5.230;2023-02-01T01:49:57;9.00;99.90
27413;DHT22;14871;52.702;5.230;2023-02-01T01:52:23;9.00;99.90
27413;DHT22;14871;52.702;5.230;2023-02-01T01:54:51;9.00;99.90
27413;DHT22;14871;52.702;5.230;2023-02-01T01:57:23;9.30;99.90
27413;DHT22;14871;52.702;5.230;2023-02-01T02:00:03;9.30;99.90
27413;DHT22;14871;52.702;5.230;2023-02-01T02:02:29;9.30;99.90
27413;DHT22;14871;52.702;5.230;2023-02-01T02:04:55;9.40;99.90
27413;DHT22;14871;52.702;5.230;2023-02-01T02:07:25;9.40;99.90
27413;DHT22;14871;52.702;5.230;2023-02-01T02:09:51;9.20;99.90
27413;DHT22;14871;52.702;5.230;2023-02-01T02:12:17;9.10;99.90
27413;DHT22;14871;52.702;5.230;2023-02-01T02:14:43;9.10;99.90
27413;DHT22;14871;52.702;5.230;2023-02-01T02:17:30;9.10;99.90
27413;DHT22;14871;52.702;5.230;2023-02-01T02:42:16;9.00;99.90
27413;DHT22;14871;52.702;5.230;2023-02-01T02:45:33;8.90;99.90
27413;DHT22;14871;52.702;5.230;2023-02-01T02:48:39;9.10;99.90
27413;DHT22;14871;52.702;5.230;2023-02-01T02:51:14;9.10;99.90
27413;DHT22;14871;52.702;5.230;2023-02-01T02:54:06;9.00;99.90
27413;DHT22;14871;52.702;5.230;2023-02-01T02:56:52;8.90;99.90
27413;DHT22;14871;52.702;5.230;2023-02-01T02:59:37;8.90;99.90
27413;DHT22;14871;52.702;5.230;2023-02-01T03:02:21;8.80;99.90
27413;DHT22;14871;52.702;5.230;2023-02-01T03:05:06;8.90;99.90
27413;DHT22;14871;52.702;5.230;2023-02-01T03:10:18;8.90;99.90
27413;DHT22;14871;52.702;5.230;2023-02-01T03:12:49;8.80;99.90
27413;DHT22;14871;52.702;5.230;2023-02-01T03:18:18;8.80;99.90
27413;DHT22;14871;52.702;5.230;2023-02-01T03:20:48;9.00;99.90
27413;DHT22;14871;52.702;5.230;2023-02-01T03:23:18;9.10;99.90
27413;DHT22;14871;52.702;5.230;2023-02-01T03:25:48;9.00;99.90
27413;DHT22;14871;52.702;5.230;2023-02-01T03:28:15;9.10;99.90
27413;DHT22;14871;52.702;5.230;2023-02-01T03:30:44;8.90;99.90
27413;DHT22;14871;52.702;5.230;2023-02-01T03:33:14;9.00;99.90
27413;DHT22;14871;52.702;5.230;2023-02-01T03:35:52;8.90;99.90
27413;DHT22;14871;52.702;5.230;2023-02-01T03:40:56;8.80;99.90
27413;DHT22;14871;52.702;5.230;2023-02-01T03:43:24;8.80;99.90
27413;DHT22;14871;52.702;5.230;2023-02-01T03:45:58;8.80;99.90
27413;DHT22;14871;52.702;5.230;2023-02-01T03:48:26;8.80;99.90
27413;DHT22;14871;52.702;5.230;2023-02-01T03:50:56;8.90;99.90
27413;DHT22;14871;52.702;5.230;2023-02-01T03:53:25;8.70;99.90
27413;DHT22;14871;52.702;5.230;2023-02-01T03:55:52;8.70;99.90
27413;DHT22;14871;52.702;5.230;2023-02-01T03:58:21;8.60;99.90
27413;DHT22;14871;52.702;5.230;2023-02-01T04:01:00;8.60;99.90
27413;DHT22;14871;52.702;5.230;2023-02-01T04:03:26;8.70;99.90
27413;DHT22;14871;52.702;5.230;2023-02-01T04:05:53;8.90;99.90
27413;DHT22;14871;52.702;5.230;2023-02-01T04:08:19;8.80;99.90
27413;DHT22;14871;52.702;5.230;2023-02-01T04:10:45;8.70;99.90
27413;DHT22;14871;52.702;5.230;2023-02-01T04:13:11;8.80;99.90
27413;DHT22;14871;52.702;5.230;2023-02-01T04:15:37;8.70;99.90
27413;DHT22;14871;52.702;5.230;2023-02-01T04:18:03;8.60;99.90
27413;DHT22;14871;52.702;5.230;2023-02-01T04:20:29;8.50;99.90
27413;DHT22;14871;52.702;5.230;2023-02-01T04:22:54;8.60;99.90
27413;DHT22;14871;52.702;5.230;2023-02-01T04:25:20;8.60;99.90
27413;DHT22;14871;52.702;5.230;2023-02-01T04:27:46;8.60;99.90
27413;DHT22;14871;52.702;5.230;2023-02-01T04:30:12;8.60;99.90
27413;DHT22;14871;52.702;5.230;2023-02-01T04:32:38;8.60;99.90
27413;DHT22;14871;52.702;5.230;2023-02-01T04:35:04;8.70;99.90
27413;DHT22;14871;52.702;5.230;2023-02-01T04:37:30;8.60;99.90
27413;DHT22;14871;52.702;5.230;2023-02-01T04:39:55;8.70;99.90
27413;DHT22;14871;52.702;5.230;2023-02-01T04:42:21;8.60;99.90
27413;DHT22;14871;52.702;5.230;2023-02-01T04:44:47;8.60;99.90
27413;DHT22;14871;52.702;5.230;2023-02-01T04:47:13;8.80;99.90
27413;DHT22;14871;52.702;5.230;2023-02-01T04:49:39;8.70;99.90
27413;DHT22;14871;52.702;5.230;2023-02-01T04:52:05;8.70;99.90
27413;DHT22;14871;52.702;5.230;2023-02-01T04:54:31;8.70;99.90
27413;DHT22;14871;52.702;5.230;2023-02-01T04:56:56;8.70;99.90
27413;DHT22;14871;52.702;5.230;2023-02-01T04:59:22;8.80;99.90
27413;DHT22;14871;52.702;5.230;2023-02-01T05:01:48;8.60;99.90
27413;DHT22;14871;52.702;5.230;2023-02-01T05:04:13;8.50;99.90
27413;DHT22;14871;52.702;5.230;2023-02-01T05:06:39;8.80;99.90
27413;DHT22;14871;52.702;5.230;2023-02-01T05:09:05;8.70;99.90
27413;DHT22;14871;52.702;5.230;2023-02-01T05:11:30;8.80;99.90
27413;DHT22;14871;52.702;5.230;2023-02-01T05:14:15;8.80;99.90
27413;DHT22;14871;52.702;5.230;2023-02-01T05:16:40;8.70;99.90
27413;DHT22;14871;52.702;5.230;2023-02-01T05:19:06;8.70;99.90
27413;DHT22;14871;52.702;5.230;2023-02-01T05:21:32;8.80;99.90
27413;DHT22;14871;52.702;5.230;2023-02-01T05:23:57;8.80;99.90
27413;DHT22;14871;52.702;5.230;2023-02-01T05:26:36;8.80;99.90
27413;DHT22;14871;52.702;5.230;2023-02-01T05:29:02;8.90;99.90
27413;DHT22;14871;52.702;5.230;2023-02-01T05:31:28;8.70;99.90
27413;DHT22;14871;52.702;5.230;2023-02-01T05:33:54;8.60;99.90
27413;DHT22;14871;52.702;5.230;2023-02-01T05:36:19;8.70;99.90
27413;DHT22;14871;52.702;5.230;2023-02-01T05:38:45;8.60;99.90
27413;DHT22;14871;52.702;5.230;2023-02-01T05:41:10;8.50;99.90
27413;DHT22;14871;52.702;5.230;2023-02-01T05:43:36;8.50;99.90
27413;DHT22;14871;52.702;5.230;2023-02-01T05:46:01;8.60;99.90
27413;DHT22;14871;52.702;5.230;2023-02-01T05:48:27;8.60;99.90
27413;DHT22;14871;52.702;5.230;2023-02-01T05:50:53;8.60;99.90
27413;DHT22;14871;52.702;5.230;2023-02-01T05:53:19;8.60;99.90
27413;DHT22;14871;52.702;5.230;2023-02-01T05:55:45;8.50;99.90
27413;DHT22;14871;52.702;5.230;2023-02-01T05:58:10;8.50;99.90
27413;DHT22;14871;52.702;5.230;2023-02-01T06:00:38;8.50;99.90
27413;DHT22;14871;52.702;5.230;2023-02-01T06:03:04;8.50;99.90
27413;DHT22;14871;52.702;5.230;2023-02-01T06:05:29;8.60;99.90
27413;DHT22;14871;52.702;5.230;2023-02-01T06:07:55;8.50;99.90
27413;DHT22;14871;52.702;5.230;2023-02-01T06:10:20;8.50;99.90
27413;DHT22;14871;52.702;5.230;2023-02-01T06:12:46;8.60;99.90
27413;DHT22;14871;52.702;5.230;2023-02-01T06:15:12;8.60;99.90
27413;DHT22;14871;52.702;5.230;2023-02-01T06:17:38;8.70;99.90
27413;DHT22;14871;52.702;5.230;2023-02-01T06:20:05;8.70;99.90
27413;DHT22;14871;52.702;5.230;2023-02-01T06:22:32;8.70;99.90
27413;DHT22;14871;52.702;5.230;2023-02-01T06:24:58;8.60;99.90
27413;DHT22;14871;52.702;5.230;2023-02-01T06:27:24;8.50;99.90
27413;DHT22;14871;52.702;5.230;2023-02-01T06:29:50;8.50;99.90
27413;DHT22;14871;52.702;5.230;2023-02-01T06:32:15;8.50;99.90
27413;DHT22;14871;52.702;5.230;2023-02-01T06:34:43;8.30;99.90
27413;DHT22;14871;52.702;5.230;2023-02-01T06:37:08;8.40;99.90
27413;DHT22;14871;52.702;5.230;2023-02-01T06:39:36;8.40;99.90
27413;DHT22;14871;52.702;5.230;2023-02-01T06:42:02;8.40;99.90
27413;DHT22;14871;52.702;5.230;2023-02-01T06:44:27;8.30;99.90
27413;DHT22;14871;52.702;5.230;2023-02-01T06:46:53;8.20;99.90
27413;DHT22;14871;52.702;5.230;2023-02-01T06:49:20;8.30;99.90
27413;DHT22;14871;52.702;5.230;2023-02-01T06:51:46;8.40;99.90
27413;DHT22;14871;52.702;5.230;2023-02-01T06:54:12;8.20;99.90
27413;DHT22;14871;52.702;5.230;2023-02-01T06:56:37;8.40;99.90
27413;DHT22;14871;52.702;5.230;2023-02-01T06:59:05;8.20;99.90
27413;DHT22;14871;52.702;5.230;2023-02-01T07:01:31;8.10;99.90
27413;DHT22;14871;52.702;5.230;2023-02-01T07:03:57;8.20;99.90
27413;DHT22;14871;52.702;5.230;2023-02-01T07:06:23;8.20;99.90
27413;DHT22;14871;52.702;5.230;2023-02-01T07:08:49;8.20;99.90
27413;DHT22;14871;52.702;5.230;2023-02-01T07:11:16;8.30;99.90
27413;DHT22;14871;52.702;5.230;2023-02-01T07:13:42;8.20;99.90
27413;DHT22;14871;52.702;5.230;2023-02-01T07:16:17;8.40;99.90
27413;DHT22;14871;52.702;5.230;2023-02-01T07:18:43;8.30;99.90
27413;DHT22;14871;52.702;5.230;2023-02-01T07:21:09;8.30;99.90
27413;DHT22;14871;52.702;5.230;2023-02-01T07:23:35;8.30;99.90
27413;DHT22;14871;52.702;5.230;2023-02-01T07:26:03;8.30;99.90
27413;DHT22;14871;52.702;5.230;2023-02-01T07:28:31;8.30;99.90
27413;DHT22;14871;52.702;5.230;2023-02-01T07:31:27;8.40;99.90
27413;DHT22;14871;52.702;5.230;2023-02-01T07:33:54;8.40;99.90
27413;DHT22;14871;52.702;5.230;2023-02-01T07:36:22;8.60;99.90
27413;DHT22;14871;52.702;5.230;2023-02-01T07:38:48;8.60;99.90
27413;DHT22;14871;52.702;5.230;2023-02-01T07:41:13;8.50;99.90
27413;DHT22;14871;52.702;5.230;2023-02-01T07:43:39;8.60;99.90
27413;DHT22;14871;52.702;5.230;2023-02-01T07:46:06;8.50;99.90
27413;DHT22;14871;52.702;5.230;2023-02-01T07:48:32;8.70;99.90
27413;DHT22;14871;52.702;5.230;2023-02-01T07:51:08;8.40;99.90
27413;DHT22;14871;52.702;5.230;2023-02-01T07:53:34;8.30;99.90
27413;DHT22;14871;52.702;5.230;2023-02-01T07:56:00;8.40;99.90
27413;DHT22;14871;52.702;5.230;2023-02-01T07:58:27;8.20;99.90
27413;DHT22;14871;52.702;5.230;2023-02-01T08:00:53;8.40;99.90
27413;DHT22;14871;52.702;5.230;2023-02-01T08:03:38;8.50;99.90
27413;DHT22;14871;52.702;5.230;2023-02-01T08:06:04;8.40;99.90
27413;DHT22;14871;52.702;5.230;2023-02-01T08:08:30;8.40;99.90
27413;DHT22;14871;52.702;5.230;2023-02-01T08:11:00;8.30;99.90
27413;DHT22;14871;52.702;5.230;2023-02-01T08:13:26;8.50;99.90
27413;DHT22;14871;52.702;5.230;2023-02-01T08:15:52;8.60;99.90
27413;DHT22;14871;52.702;5.230;2023-02-01T08:18:17;8.90;99.90
27413;DHT22;14871;52.702;5.230;2023-02-01T08:20:44;8.80;99.90
27413;DHT22;14871;52.702;5.230;2023-02-01T08:23:11;8.90;99.90
27413;DHT22;14871;52.702;5.230;2023-02-01T08:25:38;8.80;99.90
27413;DHT22;14871;52.702;5.230;2023-02-01T08:28:05;8.80;99.90
27413;DHT22;14871;52.702;5.230;2023-02-01T08:30:30;8.80;99.90
27413;DHT22;14871;52.702;5.230;2023-02-01T08:32:57;8.80;99.90
27413;DHT22;14871;52.702;5.230;2023-02-01T08:35:23;8.80;99.90
27413;DHT22;14871;52.702;5.230;2023-02-01T08:37:50;8.70;99.90
27413;DHT22;14871;52.702;5.230;2023-02-01T08:40:16;8.60;99.90
27413;DHT22;14871;52.702;5.230;2023-02-01T08:42:41;8.90;99.90
27413;DHT22;14871;52.702;5.230;2023-02-01T08:45:18;9.00;99.90
27413;DHT22;14871;52.702;5.230;2023-02-01T08:47:44;8.80;99.90
27413;DHT22;14871;52.702;5.230;2023-02-01T08:50:10;8.80;99.90
27413;DHT22;14871;52.702;5.230;2023-02-01T08:52:36;9.10;99.90
27413;DHT22;14871;52.702;5.230;2023-02-01T08:55:01;8.90;99.90
27413;DHT22;14871;52.702;5.230;2023-02-01T08:57:27;8.80;99.90
27413;DHT22;14871;52.702;5.230;2023-02-01T08:59:53;8.80;99.90
27413;DHT22;14871;52.702;5.230;2023-02-01T09:02:18;9.00;99.90
27413;DHT22;14871;52.702;5.230;2023-02-01T09:04:44;9.10;99.90
27413;DHT22;14871;52.702;5.230;2023-02-01T09:07:10;9.00;99.90
27413;DHT22;14871;52.702;5.230;2023-02-01T09:09:37;9.10;99.90
27413;DHT22;14871;52.702;5.230;2023-02-01T09:12:03;8.90;99.90
27413;DHT22;14871;52.702;5.230;2023-02-01T09:14:29;8.90;99.90
27413;DHT22;14871;52.702;5.230;2023-02-01T09:16:55;8.90;99.90
27413;DHT22;14871;52.702;5.230;2023-02-01T09:19:21;9.10;99.90
27413;DHT22;14871;52.702;5.230;2023-02-01T09:21:46;9.10;99.90
27413;DHT22;14871;52.702;5.230;2023-02-01T09:24:12;8.90;99.90
27413;DHT22;14871;52.702;5.230;2023-02-01T09:26:38;9.10;99.90
27413;DHT22;14871;52.702;5.230;2023-02-01T09:29:04;9.30;99.90
27413;DHT22;14871;52.702;5.230;2023-02-01T09:31:35;9.10;99.90
27413;DHT22;14871;52.702;5.230;2023-02-01T09:34:01;9.20;99.90
27413;DHT22;14871;52.702;5.230;2023-02-01T09:36:27;9.10;99.90
27413;DHT22;14871;52.702;5.230;2023-02-01T09:38:53;9.20;99.90
27413;DHT22;14871;52.702;5.230;2023-02-01T09:41:42;9.10;99.90
27413;DHT22;14871;52.702;5.230;2023-02-01T09:46:58;8.80;99.90
27413;DHT22;14871;52.702;5.230;2023-02-01T09:49:37;8.80;99.90
27413;DHT22;14871;52.702;5.230;2023-02-01T09:52:10;8.60;99.90
27413;DHT22;14871;52.702;5.230;2023-02-01T09:54:47;8.80;99.90
27413;DHT22;14871;52.702;5.230;2023-02-01T09:57:24;8.80;99.90
27413;DHT22;14871;52.702;5.230;2023-02-01T10:00:03;8.90;99.90
27413;DHT22;14871;52.702;5.230;2023-02-01T10:02:30;9.00;99.90
27413;DHT22;14871;52.702;5.230;2023-02-01T10:04:58;8.70;99.90
27413;DHT22;14871;52.702;5.230;2023-02-01T10:13:05;8.70;99.90
27413;DHT22;14871;52.702;5.230;2023-02-01T10:15:52;8.90;99.90
27413;DHT22;14871;52.702;5.230;2023-02-01T10:21:49;8.60;99.90
27413;DHT22;14871;52.702;5.230;2023-02-01T10:24:28;8.50;99.90
27413;DHT22;14871;52.702;5.230;2023-02-01T10:27:22;8.80;99.90
27413;DHT22;14871;52.702;5.230;2023-02-01T10:29:54;8.80;99.90
27413;DHT22;14871;52.702;5.230;2023-02-01T10:32:23;8.70;99.90
27413;DHT22;14871;52.702;5.230;2023-02-01T10:34:58;8.70;99.90
27413;DHT22;14871;52.702;5.230;2023-02-01T10:37:30;8.90;99.90
27413;DHT22;14871;52.702;5.230;2023-02-01T10:42:43;8.90;99.90
27413;DHT22;14871;52.702;5.230;2023-02-01T10:45:19;8.90;99.90
27413;DHT22;14871;52.702;5.230;2023-02-01T10:47:47;9.00;99.90
27413;DHT22;14871;52.702;5.230;2023-02-01T10:50:38;9.30;99.90
27413;DHT22;14871;52.702;5.230;2023-02-01T10:53:15;9.00;99.90
27413;DHT22;14871;52.702;5.230;2023-02-01T10:58:20;9.00;99.90
27413;DHT22;14871;52.702;5.230;2023-02-01T11:01:04;9.00;99.90
27413;DHT22;14871;52.702;5.230;2023-02-01T11:06:17;9.10;99.90
27413;DHT22;14871;52.702;5.230;2023-02-01T11:08:47;9.20;99.90
27413;DHT22;14871;52.702;5.230;2023-02-01T11:11:13;9.20;99.90
27413;DHT22;14871;52.702;5.230;2023-02-01T11:13:40;9.40;99.90
27413;DHT22;14871;52.702;5.230;2023-02-01T11:16:08;9.30;99.90
27413;DHT22;14871;52.702;5.230;2023-02-01T11:18:37;9.10;99.90
27413;DHT22;14871;52.702;5.230;2023-02-01T11:21:05;9.30;99.90
27413;DHT22;14871;52.702;5.230;2023-02-01T11:23:32;9.20;99.90
27413;DHT22;14871;52.702;5.230;2023-02-01T11:26:12;9.00;99.90
27413;DHT22;14871;52.702;5.230;2023-02-01T11:28:40;9.30;99.90
27413;DHT22;14871;52.702;5.230;2023-02-01T11:31:10;9.40;99.90
27413;DHT22;14871;52.702;5.230;2023-02-01T11:33:38;9.40;99.90
27413;DHT22;14871;52.702;5.230;2023-02-01T11:36:10;9.30;99.90
27413;DHT22;14871;52.702;5.230;2023-02-01T11:38:37;9.50;99.90
27413;DHT22;14871;52.702;5.230;2023-02-01T11:41:25;9.40;99.90
27413;DHT22;14871;52.702;5.230;2023-02-01T11:49:43;9.20;99.90
27413;DHT22;14871;52.702;5.230;2023-02-01T12:06:15;9.40;99.90
27413;DHT22;14871;52.702;5.230;2023-02-01T12:38:18;9.50;99.90
27413;DHT22;14871;52.702;5.230;2023-02-01T12:43:33;9.50;99.90
27413;DHT22;14871;52.702;5.230;2023-02-01T12:46:06;9.40;99.90
27413;DHT22;14871;52.702;5.230;2023-02-01T12:48:50;9.40;99.90
27413;DHT22;14871;52.702;5.230;2023-02-01T12:51:25;9.50;99.90
27413;DHT22;14871;52.702;5.230;2023-02-01T12:53:55;9.50;99.90
27413;DHT22;14871;52.702;5.230;2023-02-01T12:56:30;9.50;99.90
27413;DHT22;14871;52.702;5.230;2023-02-01T12:58:59;9.50;99.90
27413;DHT22;14871;52.702;5.230;2023-02-01T13:01:40;9.40;99.90
27413;DHT22;14871;52.702;5.230;2023-02-01T13:04:23;9.30;99.90
27413;DHT22;14871;52.702;5.230;2023-02-01T13:06:54;9.30;99.90
27413;DHT22;14871;52.702;5.230;2023-02-01T13:12:12;9.50;99.90
27413;DHT22;14871;52.702;5.230;2023-02-01T13:14:55;9.60;99.90
27413;DHT22;14871;52.702;5.230;2023-02-01T13:17:28;9.60;99.90
27413;DHT22;14871;52.702;5.230;2023-02-01T13:22:37;9.70;99.90
27413;DHT22;14871;52.702;5.230;2023-02-01T13:27:35;9.80;99.90
27413;DHT22;14871;52.702;5.230;2023-02-01T13:30:17;9.80;99.90
27413;DHT22;14871;52.702;5.230;2023-02-01T13:43:44;10.00;99.90
27413;DHT22;14871;52.702;5.230;2023-02-01T13:46:13;10.00;99.90
27413;DHT22;14871;52.702;5.230;2023-02-01T13:48:59;10.00;99.90
27413;DHT22;14871;52.702;5.230;2023-02-01T13:51:43;10.00;99.90
27413;DHT22;14871;52.702;5.230;2023-02-01T13:54:32;10.10;99.90
27413;DHT22;14871;52.702;5.230;2023-02-01T13:56:59;10.20;99.90
27413;DHT22;14871;52.702;5.230;2023-02-01T14:05:06;10.00;99.90
27413;DHT22;14871;52.702;5.230;2023-02-01T14:07:33;10.10;99.90
27413;DHT22;14871;52.702;5.230;2023-02-01T14:10:03;10.30;99.90
27413;DHT22;14871;52.702;5.230;2023-02-01T14:12:46;10.20;99.90
27413;DHT22;14871;52.702;5.230;2023-02-01T14:15:24;10.10;99.90
27413;DHT22;14871;52.702;5.230;2023-02-01T14:17:50;9.90;99.90
27413;DHT22;14871;52.702;5.230;2023-02-01T14:20:39;9.90;99.90
27413;DHT22;14871;52.702;5.230;2023-02-01T14:23:12;9.80;99.90
27413;DHT22;14871;52.702;5.230;2023-02-01T14:25:39;9.90;99.90
27413;DHT22;14871;52.702;5.230;2023-02-01T14:28:25;9.90;99.90
27413;DHT22;14871;52.702;5.230;2023-02-01T14:30:52;9.90;99.90
27413;DHT22;14871;52.702;5.230;2023-02-01T14:33:21;10.00;99.90
27413;DHT22;14871;52.702;5.230;2023-02-01T14:36:00;9.90;99.90
27413;DHT22;14871;52.702;5.230;2023-02-01T14:38:27;10.10;99.90
27413;DHT22;14871;52.702;5.230;2023-02-01T14:41:11;10.20;99.90
27413;DHT22;14871;52.702;5.230;2023-02-01T14:52:33;11.10;99.90
27413;DHT22;14871;52.702;5.230;2023-02-01T14:55:04;10.60;99.90
27413;DHT22;14871;52.702;5.230;2023-02-01T14:57:36;10.30;99.90
27413;DHT22;14871;52.702;5.230;2023-02-01T15:02:48;10.20;99.90
27413;DHT22;14871;52.702;5.230;2023-02-01T15:05:30;10.00;99.90
27413;DHT22;14871;52.702;5.230;2023-02-01T15:10:45;9.80;99.90
27413;DHT22;14871;52.702;5.230;2023-02-01T15:13:23;9.90;99.90
27413;DHT22;14871;52.702;5.230;2023-02-01T15:16:12;9.90;99.90
27413;DHT22;14871;52.702;5.230;2023-02-01T15:18:38;9.90;99.90
27413;DHT22;14871;52.702;5.230;2023-02-01T15:21:05;9.90;99.90
27413;DHT22;14871;52.702;5.230;2023-02-01T15:23:32;9.80;99.90
27413;DHT22;14871;52.702;5.230;2023-02-01T15:25:58;9.90;99.90
27413;DHT22;14871;52.702;5.230;2023-02-01T15:28:25;9.70;99.90
27413;DHT22;14871;52.702;5.230;2023-02-01T15:31:03;9.80;99.90
27413;DHT22;14871;52.702;5.230;2023-02-01T15:33:29;9.70;99.90
27413;DHT22;14871;52.702;5.230;2023-02-01T15:36:17;9.70;99.90
27413;DHT22;14871;52.702;5.230;2023-02-01T15:38:44;9.70;99.90
27413;DHT22;14871;52.702;5.230;2023-02-01T15:41:28;9.70;99.90
27413;DHT22;14871;52.702;5.230;2023-02-01T15:46:40;9.80;99.90
27413;DHT22;14871;52.702;5.230;2023-02-01T15:51:47;9.90;99.90
27413;DHT22;14871;52.702;5.230;2023-02-01T15:54:23;9.90;99.90
27413;DHT22;14871;52.702;5.230;2023-02-01T15:56:52;9.90;99.90
27413;DHT22;14871;52.702;5.230;2023-02-01T15:59:24;9.90;99.90
27413;DHT22;14871;52.702;5.230;2023-02-01T16:01:50;9.90;99.90
27413;DHT22;14871;52.702;5.230;2023-02-01T16:04:25;9.90;99.90
27413;DHT22;14871;52.702;5.230;2023-02-01T16:06:53;9.90;99.90
27413;DHT22;14871;52.702;5.230;2023-02-01T16:09:25;9.70;99.90
27413;DHT22;14871;52.702;5.230;2023-02-01T16:12:01;9.70;99.90
27413;DHT22;14871;52.702;5.230;2023-02-01T16:14:29;9.50;99.90
27413;DHT22;14871;52.702;5.230;2023-02-01T16:16:57;9.60;99.90
27413;DHT22;14871;52.702;5.230;2023-02-01T16:19:23;9.60;99.90
27413;DHT22;14871;52.702;5.230;2023-02-01T16:21:54;9.60;99.90
27413;DHT22;14871;52.702;5.230;2023-02-01T16:24:20;9.60;99.90
27413;DHT22;14871;52.702;5.230;2023-02-01T16:26:47;9.50;99.90
27413;DHT22;14871;52.702;5.230;2023-02-01T16:29:13;9.40;99.90
27413;DHT22;14871;52.702;5.230;2023-02-01T16:31:41;9.40;99.90
27413;DHT22;14871;52.702;5.230;2023-02-01T16:34:14;9.40;99.90
27413;DHT22;14871;52.702;5.230;2023-02-01T16:36:42;9.40;99.90
27413;DHT22;14871;52.702;5.230;2023-02-01T16:39:10;9.40;99.90
27413;DHT22;14871;52.702;5.230;2023-02-01T16:41:36;9.50;99.90
27413;DHT22;14871;52.702;5.230;2023-02-01T16:44:02;9.50;99.90
27413;DHT22;14871;52.702;5.230;2023-02-01T16:46:33;9.50;99.90
27413;DHT22;14871;52.702;5.230;2023-02-01T16:49:01;9.50;99.90
27413;DHT22;14871;52.702;5.230;2023-02-01T16:51:31;9.50;99.90
27413;DHT22;14871;52.702;5.230;2023-02-01T16:54:01;9.50;99.90
27413;DHT22;14871;52.702;5.230;2023-02-01T16:56:32;9.30;99.90
27413;DHT22;14871;52.702;5.230;2023-02-01T16:58:58;9.40;99.90
27413;DHT22;14871;52.702;5.230;2023-02-01T17:01:24;9.40;99.90
27413;DHT22;14871;52.702;5.230;2023-02-01T17:03:49;9.40;99.90
27413;DHT22;14871;52.702;5.230;2023-02-01T17:06:18;9.30;99.90
27413;DHT22;14871;52.702;5.230;2023-02-01T17:08:50;9.30;99.90
27413;DHT22;14871;52.702;5.230;2023-02-01T17:11:15;9.20;99.90
27413;DHT22;14871;52.702;5.230;2023-02-01T17:13:41;9.20;99.90
27413;DHT22;14871;52.702;5.230;2023-02-01T17:18:53;9.20;99.90
27413;DHT22;14871;52.702;5.230;2023-02-01T17:21:20;9.30;99.90
27413;DHT22;14871;52.702;5.230;2023-02-01T17:23:46;9.20;99.90
27413;DHT22;14871;52.702;5.230;2023-02-01T17:26:11;9.30;99.90
27413;DHT22;14871;52.702;5.230;2023-02-01T17:28:37;9.20;99.90
27413;DHT22;14871;52.702;5.230;2023-02-01T17:31:03;9.00;99.90
27413;DHT22;14871;52.702;5.230;2023-02-01T17:33:34;9.10;99.90
27413;DHT22;14871;52.702;5.230;2023-02-01T17:36:01;9.10;99.90
27413;DHT22;14871;52.702;5.230;2023-02-01T17:38:27;9.10;99.90
27413;DHT22;14871;52.702;5.230;2023-02-01T17:40:53;9.10;99.90
27413;DHT22;14871;52.702;5.230;2023-02-01T17:43:23;9.20;99.90
27413;DHT22;14871;52.702;5.230;2023-02-01T17:45:58;9.10;99.90
27413;DHT22;14871;52.702;5.230;2023-02-01T17:48:25;9.20;99.90
27413;DHT22;14871;52.702;5.230;2023-02-01T17:50:51;9.10;99.90
27413;DHT22;14871;52.702;5.230;2023-02-01T17:53:26;9.10;99.90
27413;DHT22;14871;52.702;5.230;2023-02-01T17:55:53;9.10;99.90
27413;DHT22;14871;52.702;5.230;2023-02-01T17:58:19;9.20;99.90
27413;DHT22;14871;52.702;5.230;2023-02-01T18:00:46;9.10;99.90
27413;DHT22;14871;52.702;5.230;2023-02-01T18:03:29;9.10;99.90
27413;DHT22;14871;52.702;5.230;2023-02-01T18:05:57;9.10;99.90
27413;DHT22;14871;52.702;5.230;2023-02-01T18:08:26;9.10;99.90
27413;DHT22;14871;52.702;5.230;2023-02-01T18:10:58;9.10;99.90
27413;DHT22;14871;52.702;5.230;2023-02-01T18:13:27;9.10;99.90
27413;DHT22;14871;52.702;5.230;2023-02-01T18:15:53;9.10;99.90
27413;DHT22;14871;52.702;5.230;2023-02-01T18:18:20;9.00;99.90
27413;DHT22;14871;52.702;5.230;2023-02-01T18:20:47;9.00;99.90
27413;DHT22;14871;52.702;5.230;2023-02-01T18:25:41;9.00;99.90
27413;DHT22;14871;52.702;5.230;2023-02-01T18:28:06;9.10;99.90
27413;DHT22;14871;52.702;5.230;2023-02-01T18:30:33;9.10;99.90
27413;DHT22;14871;52.702;5.230;2023-02-01T18:32:59;9.10;99.90
27413;DHT22;14871;52.702;5.230;2023-02-01T18:35:30;9.10;99.90